Terminal Aerodrome Forecast
Issued by NWS

Home | Current Version | Previous Version | Graphics & Text | Print | Product List | Glossary On
Versions: 1 2 3 4 5 6 7 8 9 10 11 12 13 14 15 16 17 18 19 20
000
FTUS43 KIWX 210227 AAB
TAFSBN
TAF AMD
KSBN 210227Z 2102/2124 13004KT 6SM BR SCT018 OVC035
      TEMPO 2103/2105 3SM BR SCT005 BKN018
     FM210500 15006KT 2SM BR VCSH OVC006
      TEMPO 2106/2109 3/4SM BR OVC003
     FM210900 16007KT 5SM BR OVC007
     FM211400 17010KT 6SM BR BKN020=

USA.gov is the U.S. government's official web portal to all federal, state and local government web resources and services.